Time;durP1;ratioP1;P1;durP2;ratioP2;P2;SDS_P1;SDS_P2;PMS_P1;PMS_P2;Temp;Humidity;BMP_temperature;BMP_pressure;BME280_temperature;BME280_humidity;BME280_pressure;Samples;Min_cycle;Max_cycle;Signal;HPM_P1;HPM_P2
2023/08/09 00:02:09;;;;;;;1.07;0.90;;;23.70;96.70;;;;;;4958440;29;20483;-96
2023/08/09 00:04:36;;;;;;;1.00;0.80;;;23.70;96.60;;;;;;4958719;29;20477;-92
2023/08/09 00:07:04;;;;;;;1.27;0.90;;;23.70;96.60;;;;;;4958294;29;20446;-92
2023/08/09 00:09:31;;;;;;;1.77;1.00;;;23.70;96.80;;;;;;4958469;28;20565;-91
2023/08/09 00:11:58;;;;;;;1.10;0.90;;;23.70;96.70;;;;;;4959070;29;20439;-91
2023/08/09 00:14:25;;;;;;;1.57;0.80;;;23.70;96.60;;;;;;4958919;29;20457;-93
2023/08/09 00:16:52;;;;;;;1.00;0.90;;;23.60;96.50;;;;;;4958679;29;20457;-91
2023/08/09 00:19:19;;;;;;;1.00;0.80;;;23.70;96.40;;;;;;4958975;29;20452;-91
2023/08/09 00:21:46;;;;;;;1.00;0.80;;;23.70;96.50;;;;;;4958030;29;21079;-91
2023/08/09 00:24:14;;;;;;;1.10;0.80;;;23.70;96.60;;;;;;4958195;29;20454;-91
2023/08/09 00:26:41;;;;;;;1.60;1.10;;;23.60;96.40;;;;;;4958272;29;20457;-92
2023/08/09 00:29:08;;;;;;;1.10;1.00;;;23.70;96.30;;;;;;4958066;29;20534;-92
2023/08/09 00:31:35;;;;;;;1.30;1.10;;;23.60;96.40;;;;;;4958247;29;20447;-93
2023/08/09 00:34:02;;;;;;;1.10;0.90;;;23.60;96.30;;;;;;4957952;29;20444;-92
2023/08/09 00:36:29;;;;;;;1.40;0.80;;;23.60;96.50;;;;;;4957936;29;20824;-91
2023/08/09 00:38:56;;;;;;;1.03;0.80;;;23.60;96.40;;;;;;4957655;28;20533;-92
2023/08/09 00:41:24;;;;;;;1.20;0.93;;;23.60;96.40;;;;;;4958195;29;20441;-92
2023/08/09 00:43:51;;;;;;;1.30;1.00;;;23.60;96.40;;;;;;4958244;29;20537;-92
2023/08/09 00:46:18;;;;;;;1.10;0.90;;;23.60;96.30;;;;;;4957659;29;20803;-92
2023/08/09 00:48:45;;;;;;;1.27;1.00;;;23.60;96.30;;;;;;4957888;29;20442;-92
2023/08/09 00:51:12;;;;;;;1.17;0.83;;;23.60;96.30;;;;;;4958210;29;20442;-92
2023/08/09 00:53:39;;;;;;;1.10;1.00;;;23.60;96.20;;;;;;4957865;29;20452;-91
2023/08/09 00:56:07;;;;;;;1.10;0.90;;;23.60;96.30;;;;;;4957540;29;20447;-92
2023/08/09 00:58:35;;;;;;;1.00;0.70;;;23.60;96.30;;;;;;4957789;29;20453;-91
2023/08/09 01:01:02;;;;;;;2.37;0.90;;;23.60;96.30;;;;;;4956894;28;20887;-91
2023/08/09 01:03:29;;;;;;;1.00;0.80;;;23.60;96.40;;;;;;4957710;29;20498;-91
2023/08/09 01:06:03;;;;;;;1.10;0.80;;;23.60;96.40;;;;;;4961759;29;20450;-92
2023/08/09 01:08:36;;;;;;;1.30;0.80;;;23.60;96.30;;;;;;4961442;28;20526;-91
2023/08/09 01:11:10;;;;;;;1.30;0.90;;;23.60;96.40;;;;;;4961644;28;20565;-92
2023/08/09 01:13:41;;;;;;;1.10;1.00;;;23.60;96.30;;;;;;4960936;29;20434;-94
2023/08/09 01:16:10;;;;;;;1.00;0.90;;;23.60;96.60;;;;;;4960251;29;20462;-92
2023/08/09 01:18:37;;;;;;;1.00;0.77;;;23.60;96.30;;;;;;4960320;29;20449;-91
2023/08/09 01:21:05;;;;;;;1.20;0.90;;;23.60;96.30;;;;;;4957996;29;20450;-92
2023/08/09 01:23:35;;;;;;;1.03;0.87;;;23.60;96.20;;;;;;4957645;29;20486;-92
2023/08/09 01:26:04;;;;;;;1.00;0.80;;;23.60;96.30;;;;;;4957721;29;20507;-91
2023/08/09 01:28:31;;;;;;;1.00;0.80;;;23.60;96.40;;;;;;4957162;29;20442;-91
2023/08/09 01:30:58;;;;;;;1.00;0.80;;;23.60;96.20;;;;;;4957535;29;20457;-92
2023/08/09 01:33:25;;;;;;;1.07;0.90;;;23.60;96.20;;;;;;4957451;29;20451;-92
2023/08/09 01:35:58;;;;;;;1.00;0.77;;;23.60;96.30;;;;;;4957424;29;20817;-91
2023/08/09 01:38:29;;;;;;;1.10;0.80;;;23.60;96.20;;;;;;4957525;28;20459;-92
2023/08/09 01:40:58;;;;;;;1.10;0.90;;;23.60;96.20;;;;;;4956970;29;20465;-91
2023/08/09 01:43:26;;;;;;;1.00;0.80;;;23.70;96.30;;;;;;4957235;29;20487;-91
2023/08/09 01:45:53;;;;;;;1.00;0.87;;;23.60;96.20;;;;;;4957153;29;20454;-92
2023/08/09 01:48:21;;;;;;;1.63;1.00;;;23.60;96.30;;;;;;4957315;29;20443;-92
2023/08/09 01:50:48;;;;;;;1.00;0.70;;;23.60;96.30;;;;;;4957176;29;20451;-91
2023/08/09 01:53:15;;;;;;;1.10;0.80;;;23.60;96.30;;;;;;4957269;29;20444;-92
2023/08/09 01:55:42;;;;;;;1.00;0.73;;;23.60;96.40;;;;;;4957666;29;20524;-91
2023/08/09 01:58:10;;;;;;;1.07;0.83;;;23.60;96.20;;;;;;4956997;29;20540;-91
2023/08/09 02:00:37;;;;;;;1.00;0.80;;;23.60;96.20;;;;;;4956962;29;20447;-92
2023/08/09 02:03:04;;;;;;;1.00;0.70;;;23.50;96.50;;;;;;4956673;29;21003;-91
2023/08/09 02:05:31;;;;;;;1.10;0.70;;;23.50;96.40;;;;;;4957090;29;20443;-93
2023/08/09 02:07:58;;;;;;;1.10;1.00;;;23.60;96.30;;;;;;4956438;28;20931;-91
2023/08/09 02:10:25;;;;;;;1.00;0.70;;;23.50;96.10;;;;;;4956416;29;20496;-92
2023/08/09 02:12:51;;;;;;;1.00;0.90;;;23.50;96.20;;;;;;4959543;28;20583;-91
2023/08/09 02:15:21;;;;;;;1.00;0.80;;;23.50;96.20;;;;;;4960413;29;20477;-91
2023/08/09 02:17:49;;;;;;;1.03;0.80;;;23.50;96.10;;;;;;4960145;29;20508;-91
2023/08/09 02:20:16;;;;;;;1.83;0.90;;;23.50;96.10;;;;;;4960969;29;20442;-90
2023/08/09 02:22:44;;;;;;;1.10;0.77;;;23.50;96.20;;;;;;4961079;29;20500;-90
2023/08/09 02:25:12;;;;;;;1.00;0.70;;;23.60;96.20;;;;;;4960721;29;20548;-91
2023/08/09 02:27:40;;;;;;;1.20;0.80;;;23.50;96.10;;;;;;4960674;29;20996;-91
2023/08/09 02:30:08;;;;;;;1.00;0.70;;;23.50;96.30;;;;;;4960693;29;20450;-91
2023/08/09 02:32:37;;;;;;;1.10;0.80;;;23.50;96.30;;;;;;4960458;29;20509;-92
2023/08/09 02:35:06;;;;;;;1.10;0.87;;;23.50;96.30;;;;;;4960503;29;20460;-91
2023/08/09 02:37:34;;;;;;;1.03;0.73;;;23.50;96.30;;;;;;4960973;28;20530;-91
2023/08/09 02:40:01;;;;;;;1.10;0.70;;;23.50;96.30;;;;;;4960946;29;20799;-93
2023/08/09 02:42:28;;;;;;;1.00;0.80;;;23.50;96.30;;;;;;4960671;29;20997;-90
2023/08/09 02:44:55;;;;;;;1.30;0.80;;;23.50;96.30;;;;;;4959868;29;20940;-92
2023/08/09 02:47:23;;;;;;;0.97;0.70;;;23.50;96.30;;;;;;4960199;29;20546;-92
2023/08/09 02:49:51;;;;;;;0.93;0.70;;;23.50;96.20;;;;;;4960371;29;20537;-92
2023/08/09 02:52:18;;;;;;;1.00;0.77;;;23.50;96.30;;;;;;4960322;29;20445;-91
2023/08/09 02:54:45;;;;;;;1.00;0.70;;;23.50;96.30;;;;;;4960345;29;20452;-90
2023/08/09 02:57:12;;;;;;;1.00;0.80;;;23.50;96.30;;;;;;4960588;29;20474;-91
2023/08/09 02:59:39;;;;;;;1.10;0.80;;;23.50;96.30;;;;;;4959914;29;20925;-91
2023/08/09 03:02:06;;;;;;;1.20;1.10;;;23.50;96.00;;;;;;4959980;29;20541;-91
2023/08/09 03:04:33;;;;;;;2.10;0.80;;;23.50;96.10;;;;;;4959982;29;20461;-92
2023/08/09 03:07:04;;;;;;;1.00;0.80;;;23.70;96.20;;;;;;4960203;29;20464;-91
2023/08/09 03:09:31;;;;;;;1.00;0.80;;;23.50;96.30;;;;;;4959783;28;20478;-91
2023/08/09 03:11:58;;;;;;;1.00;0.70;;;23.50;96.10;;;;;;4959606;29;20446;-91
2023/08/09 03:14:25;;;;;;;1.00;0.80;;;23.40;96.10;;;;;;4959364;29;20485;-91
2023/08/09 03:16:51;;;;;;;1.00;0.70;;;23.50;96.10;;;;;;4959670;29;20914;-91
2023/08/09 03:19:18;;;;;;;1.03;0.80;;;23.40;96.10;;;;;;4959316;29;20456;-91
2023/08/09 03:21:45;;;;;;;1.00;0.80;;;23.50;96.00;;;;;;4959952;29;20540;-91
2023/08/09 03:24:14;;;;;;;1.10;0.90;;;23.50;96.30;;;;;;4958478;28;20491;-91
2023/08/09 03:26:41;;;;;;;1.23;0.90;;;23.40;96.10;;;;;;4960293;29;20450;-91
2023/08/09 03:29:08;;;;;;;1.20;1.10;;;23.40;96.10;;;;;;4959700;29;20438;-91
2023/08/09 03:31:35;;;;;;;2.20;1.00;;;23.40;96.00;;;;;;4940433;29;20457;-90
2023/08/09 03:34:02;;;;;;;1.30;0.93;;;23.50;96.10;;;;;;4940819;29;20547;-92
2023/08/09 03:36:29;;;;;;;1.10;0.90;;;23.50;96.20;;;;;;4940479;29;20454;-92
2023/08/09 03:38:56;;;;;;;1.10;0.97;;;23.50;96.30;;;;;;4940602;29;20471;-91
2023/08/09 03:41:25;;;;;;;2.07;1.00;;;23.40;96.10;;;;;;4940920;29;20442;-92
2023/08/09 03:43:52;;;;;;;1.40;1.10;;;23.50;96.20;;;;;;4940359;29;20514;-91
2023/08/09 03:46:18;;;;;;;1.00;0.80;;;23.40;96.10;;;;;;4940929;29;20447;-92
2023/08/09 03:48:45;;;;;;;2.07;1.10;;;23.40;96.00;;;;;;4940601;29;20444;-91
2023/08/09 03:51:12;;;;;;;1.10;0.90;;;23.40;96.00;;;;;;4941014;29;20453;-91
2023/08/09 03:53:39;;;;;;;1.40;0.90;;;23.40;96.10;;;;;;4940692;29;20450;-92
2023/08/09 03:56:06;;;;;;;1.30;1.20;;;23.40;96.00;;;;;;4945300;29;22062;-91
2023/08/09 03:58:34;;;;;;;1.20;0.97;;;23.40;96.00;;;;;;4959050;29;20456;-92
2023/08/09 04:01:01;;;;;;;1.20;0.97;;;23.40;96.10;;;;;;4959733;29;20814;-91
2023/08/09 04:03:28;;;;;;;1.10;0.83;;;23.40;96.00;;;;;;4958896;29;20490;-92
2023/08/09 04:05:55;;;;;;;1.27;1.17;;;23.40;96.10;;;;;;4959287;29;20442;-91
2023/08/09 04:08:26;;;;;;;1.30;1.20;;;23.40;96.10;;;;;;4959739;28;20561;-91
2023/08/09 04:10:54;;;;;;;1.27;1.17;;;23.40;96.10;;;;;;4959343;28;20476;-93
2023/08/09 04:13:21;;;;;;;1.10;1.00;;;23.40;96.10;;;;;;4962896;29;20474;-95
2023/08/09 04:15:49;;;;;;;1.10;1.00;;;23.40;96.10;;;;;;4968776;29;20484;-95
2023/08/09 04:18:16;;;;;;;1.23;1.13;;;23.40;96.10;;;;;;4968623;29;20476;-94
2023/08/09 04:20:45;;;;;;;1.27;1.10;;;23.40;96.20;;;;;;4961251;29;20808;-91
2023/08/09 04:23:12;;;;;;;1.20;0.90;;;23.40;96.20;;;;;;4958601;29;20849;-91
2023/08/09 04:25:38;;;;;;;1.43;1.20;;;23.40;96.20;;;;;;4958073;29;20454;-91
2023/08/09 04:28:07;;;;;;;1.20;1.03;;;23.40;96.20;;;;;;4958314;29;20481;-91
2023/08/09 04:30:33;;;;;;;1.30;1.20;;;23.40;96.00;;;;;;4958800;29;20453;-90
2023/08/09 04:33:03;;;;;;;1.30;1.20;;;23.40;96.10;;;;;;4958318;29;20445;-92
2023/08/09 04:35:30;;;;;;;1.40;1.30;;;23.40;96.10;;;;;;4958670;28;20460;-92
2023/08/09 04:37:57;;;;;;;1.20;1.00;;;23.40;96.10;;;;;;4958486;28;20463;-92
2023/08/09 04:40:25;;;;;;;1.30;1.20;;;23.40;96.00;;;;;;4958099;29;20453;-93
2023/08/09 04:42:52;;;;;;;1.20;1.10;;;23.40;96.00;;;;;;4957878;29;20451;-93
2023/08/09 04:45:19;;;;;;;1.03;0.90;;;23.40;96.20;;;;;;4958251;29;20449;-91
2023/08/09 04:47:47;;;;;;;1.50;1.20;;;23.40;96.10;;;;;;4958532;29;20548;-92
2023/08/09 04:50:15;;;;;;;1.10;0.90;;;23.40;96.20;;;;;;4958266;29;20443;-90
2023/08/09 04:52:43;;;;;;;1.13;1.00;;;23.40;96.10;;;;;;4958272;29;20525;-91
2023/08/09 04:55:10;;;;;;;1.80;1.30;;;23.40;96.20;;;;;;4957995;29;20444;-90
2023/08/09 04:57:38;;;;;;;1.20;1.03;;;23.40;96.20;;;;;;4958339;29;20457;-92
2023/08/09 05:00:08;;;;;;;1.60;1.50;;;23.40;96.20;;;;;;4958387;29;20453;-91
2023/08/09 05:02:36;;;;;;;1.40;1.20;;;23.40;96.20;;;;;;4956611;29;20901;-90
2023/08/09 05:05:06;;;;;;;1.20;1.00;;;23.40;96.10;;;;;;4956404;29;20849;-90
2023/08/09 05:07:34;;;;;;;1.30;1.20;;;23.40;96.10;;;;;;4957269;28;20466;-91
2023/08/09 05:10:01;;;;;;;1.60;1.50;;;23.40;95.90;;;;;;4956829;28;20484;-89
2023/08/09 05:12:28;;;;;;;1.40;1.30;;;23.40;96.00;;;;;;4957303;29;20454;-90
2023/08/09 05:14:57;;;;;;;1.93;1.80;;;23.40;96.00;;;;;;4956231;29;20450;-90
2023/08/09 05:17:24;;;;;;;1.50;1.40;;;23.40;96.00;;;;;;4956145;29;20474;-90
2023/08/09 05:19:51;;;;;;;1.40;1.30;;;23.40;96.10;;;;;;4958025;29;20548;-90
2023/08/09 05:22:19;;;;;;;1.80;1.70;;;23.40;96.00;;;;;;4942246;29;20795;-91
2023/08/09 05:24:47;;;;;;;1.50;1.33;;;23.40;96.00;;;;;;4939608;29;20491;-94
2023/08/09 05:27:14;;;;;;;1.80;1.70;;;23.40;96.00;;;;;;4937462;29;20537;-91
2023/08/09 05:29:40;;;;;;;1.73;1.63;;;23.40;95.90;;;;;;4937563;29;20952;-89
2023/08/09 05:32:07;;;;;;;1.60;1.50;;;23.40;96.00;;;;;;4939923;29;20443;-91
2023/08/09 05:34:34;;;;;;;1.80;1.70;;;23.40;95.90;;;;;;4937300;29;20534;-90
2023/08/09 05:37:05;;;;;;;1.77;1.67;;;23.40;96.00;;;;;;4939038;29;20960;-91
2023/08/09 05:39:32;;;;;;;1.60;1.50;;;23.40;96.10;;;;;;4937531;29;20988;-93
2023/08/09 05:42:00;;;;;;;1.50;1.40;;;23.40;96.10;;;;;;4936731;29;20458;-90
2023/08/09 05:44:27;;;;;;;1.30;1.20;;;23.40;96.00;;;;;;4936967;29;20494;-90
2023/08/09 05:46:54;;;;;;;1.90;1.80;;;23.40;96.10;;;;;;4951891;29;20458;-90
2023/08/09 05:49:21;;;;;;;1.40;1.30;;;23.40;96.10;;;;;;4956544;29;20450;-90
2023/08/09 05:51:50;;;;;;;1.53;1.43;;;23.40;96.10;;;;;;4956714;29;20454;-91
2023/08/09 05:54:17;;;;;;;2.37;1.37;;;23.40;96.10;;;;;;4956913;29;20445;-90
2023/08/09 05:56:44;;;;;;;1.80;1.70;;;23.40;96.10;;;;;;4955897;29;20880;-89
2023/08/09 05:59:14;;;;;;;1.67;1.57;;;23.40;96.10;;;;;;4956048;29;20448;-90
2023/08/09 06:01:41;;;;;;;1.70;1.60;;;23.40;96.10;;;;;;4956019;29;20454;-90
2023/08/09 06:04:07;;;;;;;1.47;1.37;;;23.40;96.10;;;;;;4939449;29;20583;-95
2023/08/09 06:06:35;;;;;;;1.70;1.60;;;23.40;96.10;;;;;;4941587;29;20444;-89
2023/08/09 06:09:09;;;;;;;1.70;1.60;;;23.40;96.10;;;;;;4940384;29;20487;-89
2023/08/09 06:11:36;;;;;;;2.03;1.83;;;23.40;96.20;;;;;;4941767;29;20483;-89
2023/08/09 06:14:03;;;;;;;7.40;6.70;;;23.40;96.20;;;;;;4941932;29;20451;-89
2023/08/09 06:16:32;;;;;;;9.60;8.70;;;23.40;96.30;;;;;;4939738;29;20519;-89
2023/08/09 06:19:00;;;;;;;9.03;8.23;;;23.30;96.30;;;;;;4941440;29;20470;-89
2023/08/09 06:21:29;;;;;;;9.70;8.70;;;23.40;96.50;;;;;;4926678;29;20449;-90
2023/08/09 06:23:57;;;;;;;11.20;9.83;;;23.20;96.70;;;;;;4945383;29;20521;-90
2023/08/09 06:26:25;;;;;;;11.43;9.37;;;23.10;96.70;;;;;;4929539;29;20455;-91
2023/08/09 06:28:54;;;;;;;10.53;9.33;;;23.00;96.80;;;;;;4945150;29;20470;-90
2023/08/09 06:31:21;;;;;;;11.60;8.87;;;23.00;96.80;;;;;;4948091;29;20474;-90
2023/08/09 06:33:50;;;;;;;11.80;10.10;;;23.00;96.90;;;;;;4948199;29;20466;-91
2023/08/09 06:36:17;;;;;;;11.10;9.83;;;22.90;97.00;;;;;;4945312;29;20811;-91
2023/08/09 06:38:44;;;;;;;10.90;9.00;;;22.90;97.10;;;;;;4954785;28;20520;-89
2023/08/09 06:41:13;;;;;;;10.47;9.47;;;22.90;97.20;;;;;;4966415;29;20814;-90
2023/08/09 06:59:13;;;;;;;9.30;6.97;;;22.90;97.00;;;;;;4975003;28;20449;-96
2023/08/09 07:02:04;;;;;;;7.60;6.90;;;22.70;97.10;;;;;;5098723;23;20443;-96
2023/08/09 07:10:49;;;;;;;6.47;5.97;;;22.80;96.70;;;;;;4992564;28;20431;-96
2023/08/09 07:13:22;;;;;;;6.67;5.70;;;22.90;96.80;;;;;;4994430;28;20445;-96
2023/08/09 07:15:53;;;;;;;5.30;4.90;;;22.80;96.80;;;;;;4991546;28;20433;-94
2023/08/09 07:18:25;;;;;;;6.10;5.50;;;22.90;96.80;;;;;;5000653;23;20531;-94
2023/08/09 07:20:52;;;;;;;8.43;5.07;;;23.00;96.80;;;;;;4991887;28;20507;-94
2023/08/09 07:23:19;;;;;;;5.43;4.93;;;23.10;96.70;;;;;;4989947;28;20499;-94
2023/08/09 07:25:47;;;;;;;5.50;5.10;;;23.10;96.50;;;;;;4985868;28;20451;-95
2023/08/09 07:28:14;;;;;;;5.30;4.23;;;23.10;96.50;;;;;;4988259;28;20469;-96
2023/08/09 07:30:41;;;;;;;5.00;4.60;;;23.10;96.60;;;;;;4988332;28;20452;-96
2023/08/09 07:33:13;;;;;;;4.70;4.30;;;23.20;96.60;;;;;;4984297;28;20445;-96
2023/08/09 07:35:40;;;;;;;8.20;4.50;;;23.20;96.80;;;;;;4989969;28;20502;-89
2023/08/09 07:38:17;;;;;;;5.03;4.40;;;23.20;96.60;;;;;;4981226;28;20544;-91
2023/08/09 07:40:45;;;;;;;5.10;4.70;;;23.20;96.60;;;;;;4975262;28;20445;-92
2023/08/09 07:43:12;;;;;;;6.73;6.23;;;23.20;96.70;;;;;;4991467;28;20445;-94
2023/08/09 07:45:51;;;;;;;6.10;5.60;;;23.20;96.80;;;;;;4986778;28;20848;-96
2023/08/09 07:48:46;;;;;;;5.23;4.83;;;23.20;96.90;;;;;;4990492;28;20452;-96
2023/08/09 07:53:45;;;;;;;4.17;3.90;;;23.30;96.80;;;;;;5125882;23;20493;-93
2023/08/09 07:56:12;;;;;;;6.17;5.27;;;23.30;96.80;;;;;;4939463;29;20442;-93
2023/08/09 08:01:55;;;;;;;6.23;5.83;;;23.30;96.50;;;;;;3340844;23;20489;-90
2023/08/09 08:04:24;;;;;;;5.60;5.20;;;23.20;96.60;;;;;;4959042;29;20489;-91
2023/08/09 08:06:55;;;;;;;6.20;5.60;;;23.30;96.70;;;;;;4960018;28;20475;-91
2023/08/09 08:09:22;;;;;;;4.97;4.67;;;23.30;96.60;;;;;;4959083;28;20853;-91
2023/08/09 08:11:49;;;;;;;5.40;5.00;;;23.30;96.60;;;;;;4958787;29;20809;-94
2023/08/09 08:14:16;;;;;;;4.23;3.93;;;23.30;96.60;;;;;;4958329;29;20457;-94
2023/08/09 08:16:43;;;;;;;4.57;4.27;;;23.50;97.10;;;;;;4958808;29;20967;-94
2023/08/09 08:19:11;;;;;;;5.17;4.77;;;23.50;96.80;;;;;;4958393;29;20478;-94
2023/08/09 08:21:40;;;;;;;4.63;4.27;;;23.20;96.60;;;;;;4967041;29;20449;-94
2023/08/09 08:24:09;;;;;;;5.60;5.10;;;23.40;96.80;;;;;;4960117;29;20476;-93
2023/08/09 08:26:39;;;;;;;8.53;7.73;;;23.40;96.70;;;;;;4960859;29;20504;-94
2023/08/09 08:40:21;;;;;;;6.43;5.90;;;23.40;97.00;;;;;;4957121;29;20433;-95
2023/08/09 08:43:11;;;;;;;8.13;6.53;;;23.40;96.90;;;;;;4961324;29;20448;-95
2023/08/09 08:45:40;;;;;;;10.13;9.13;;;23.40;96.70;;;;;;4959597;29;20568;-95
2023/08/09 08:48:09;;;;;;;15.03;12.70;;;23.40;96.70;;;;;;4959652;29;20451;-93
2023/08/09 08:50:38;;;;;;;31.53;23.90;;;23.40;96.60;;;;;;4960170;29;20486;-93
2023/08/09 08:53:08;;;;;;;28.77;23.40;;;23.40;96.60;;;;;;4943496;29;20857;-93
2023/08/09 08:55:39;;;;;;;23.37;19.73;;;23.40;96.50;;;;;;4949491;29;20532;-93
2023/08/09 08:58:07;;;;;;;13.70;11.97;;;23.50;96.80;;;;;;4965997;29;20450;-93
2023/08/09 09:00:35;;;;;;;10.67;9.60;;;23.70;96.70;;;;;;4964099;29;20463;-94
2023/08/09 09:03:02;;;;;;;9.17;8.33;;;23.50;95.90;;;;;;4963378;29;20542;-93
2023/08/09 09:05:29;;;;;;;8.03;7.33;;;23.50;95.40;;;;;;4962533;28;20497;-95
2023/08/09 09:07:57;;;;;;;7.93;6.97;;;23.40;95.90;;;;;;4959070;29;20492;-94
2023/08/09 09:10:26;;;;;;;7.63;5.80;;;23.40;96.10;;;;;;4957496;29;20535;-94
2023/08/09 09:12:55;;;;;;;7.50;6.87;;;23.40;96.10;;;;;;4956978;29;20476;-94
2023/08/09 09:15:22;;;;;;;7.37;6.67;;;23.40;96.20;;;;;;4957652;29;20450;-95
2023/08/09 09:17:51;;;;;;;7.57;6.70;;;23.40;96.30;;;;;;4957592;29;20465;-95
2023/08/09 09:20:21;;;;;;;11.00;7.47;;;23.40;96.30;;;;;;4961477;29;20480;-96
2023/08/09 09:22:48;;;;;;;10.47;7.10;;;23.40;96.40;;;;;;4957241;29;20451;-96
2023/08/09 09:25:17;;;;;;;9.40;7.60;;;23.40;96.40;;;;;;4957652;29;20483;-95
2023/08/09 09:27:50;;;;;;;7.47;6.87;;;23.40;97.00;;;;;;4959416;29;20450;-95
2023/08/09 09:30:21;;;;;;;8.83;7.43;;;23.50;97.00;;;;;;4960981;29;20441;-95
2023/08/09 09:32:56;;;;;;;9.37;8.40;;;23.50;96.70;;;;;;4963072;29;20450;-96
2023/08/09 09:35:27;;;;;;;8.83;7.83;;;23.50;96.30;;;;;;4964772;28;20512;-94
2023/08/09 09:37:55;;;;;;;9.00;8.20;;;23.50;96.40;;;;;;4965346;28;20833;-96
2023/08/09 09:40:26;;;;;;;7.73;7.03;;;23.50;96.10;;;;;;4965899;29;20448;-96
2023/08/09 09:42:55;;;;;;;8.63;7.63;;;23.50;95.80;;;;;;4966808;29;20438;-94
2023/08/09 09:45:25;;;;;;;6.73;6.23;;;23.40;96.00;;;;;;4968699;29;20516;-94
2023/08/09 09:48:04;;;;;;;9.10;6.37;;;23.50;96.10;;;;;;4970145;29;20490;-95
2023/08/09 09:50:38;;;;;;;8.90;7.53;;;23.50;96.30;;;;;;4964802;29;20470;-95
2023/08/09 09:53:07;;;;;;;9.60;6.30;;;23.50;96.70;;;;;;4964127;29;20545;-94
2023/08/09 09:55:37;;;;;;;8.83;7.90;;;23.50;96.80;;;;;;4969962;29;20450;-96
2023/08/09 09:58:08;;;;;;;8.83;7.83;;;23.50;96.80;;;;;;4967187;29;20946;-96
2023/08/09 10:00:38;;;;;;;9.67;8.70;;;23.50;96.70;;;;;;4969690;29;20469;-96
2023/08/09 10:03:13;;;;;;;11.47;8.97;;;23.40;96.50;;;;;;4955151;29;20434;-96
2023/08/09 10:05:48;;;;;;;9.40;8.40;;;23.50;96.60;;;;;;4972083;28;20490;-96
2023/08/09 10:08:16;;;;;;;11.47;9.60;;;23.50;96.50;;;;;;4969757;29;20972;-96
2023/08/09 10:10:45;;;;;;;10.50;8.63;;;23.60;96.60;;;;;;4968413;29;20477;-96
2023/08/09 10:13:19;;;;;;;10.23;8.83;;;23.50;96.70;;;;;;4970463;29;20462;-96
2023/08/09 10:15:51;;;;;;;10.30;8.40;;;23.50;96.60;;;;;;4970050;29;20475;-96
2023/08/09 10:18:24;;;;;;;9.47;8.10;;;23.40;96.50;;;;;;4970968;29;20442;-96
2023/08/09 10:20:56;;;;;;;11.40;8.50;;;23.50;96.50;;;;;;4969803;29;20462;-96
2023/08/09 10:23:24;;;;;;;10.43;8.90;;;23.50;96.40;;;;;;4969032;29;20442;-96
2023/08/09 10:26:28;;;;;;;11.93;10.17;;;23.60;96.50;;;;;;4969128;29;20466;-94
2023/08/09 10:29:06;;;;;;;15.27;9.83;;;23.60;96.60;;;;;;4958817;29;21008;-89
2023/08/09 10:31:51;;;;;;;11.60;9.37;;;23.60;96.70;;;;;;4956198;29;20443;-94
2023/08/09 10:34:27;;;;;;;11.13;7.87;;;23.50;95.60;;;;;;4961587;28;20797;-90
2023/08/09 10:36:56;;;;;;;14.60;8.60;;;23.40;95.50;;;;;;4943167;29;20474;-89
2023/08/09 10:39:25;;;;;;;9.40;7.87;;;23.50;95.80;;;;;;4943057;29;20817;-90
2023/08/09 10:42:02;;;;;;;11.17;7.73;;;23.50;95.80;;;;;;4928945;29;20469;-90
2023/08/09 10:44:42;;;;;;;11.93;7.97;;;23.50;96.10;;;;;;4963187;29;20446;-91
2023/08/09 10:47:17;;;;;;;7.60;6.90;;;23.50;96.20;;;;;;4963090;29;20432;-90
2023/08/09 10:50:06;;;;;;;8.17;6.57;;;23.60;96.30;;;;;;4963690;29;20440;-90
2023/08/09 10:52:37;;;;;;;7.90;7.10;;;23.60;96.30;;;;;;4962204;29;20830;-90
2023/08/09 10:55:38;;;;;;;10.30;7.90;;;23.60;96.20;;;;;;4963801;29;20456;-89
2023/08/09 10:58:05;;;;;;;15.20;8.90;;;23.60;96.10;;;;;;4980668;23;20578;-88
2023/08/09 11:00:42;;;;;;;14.80;9.63;;;23.50;95.50;;;;;;4982082;28;20504;-87
2023/08/09 11:03:11;;;;;;;10.87;9.37;;;23.60;95.20;;;;;;4963479;29;20438;-90
2023/08/09 11:05:39;;;;;;;15.93;10.60;;;23.70;95.30;;;;;;4970330;28;20487;-89
2023/08/09 11:08:18;;;;;;;12.17;10.97;;;23.60;95.00;;;;;;4963083;29;20454;-90
2023/08/09 11:10:48;;;;;;;11.27;9.97;;;23.60;92.90;;;;;;4943667;29;20848;-89
2023/08/09 11:13:18;;;;;;;14.83;11.03;;;23.60;92.00;;;;;;4955587;29;20504;-88
2023/08/09 11:15:50;;;;;;;11.20;9.73;;;23.60;91.80;;;;;;4962396;29;20529;-88
2023/08/09 11:18:17;;;;;;;11.73;10.63;;;23.60;91.70;;;;;;4963529;29;20450;-89
2023/08/09 11:20:45;;;;;;;11.67;10.13;;;23.60;91.40;;;;;;4962093;29;20486;-88
2023/08/09 11:23:13;;;;;;;13.23;11.93;;;23.60;91.10;;;;;;4962441;29;20447;-88
2023/08/09 11:25:55;;;;;;;13.03;11.20;;;23.60;91.20;;;;;;4964208;29;20468;-87
2023/08/09 11:28:26;;;;;;;11.43;9.63;;;23.60;91.50;;;;;;4971919;29;20458;-88
2023/08/09 11:30:55;;;;;;;10.20;8.77;;;23.50;91.30;;;;;;4972944;29;20446;-87
2023/08/09 11:33:27;;;;;;;15.00;10.23;;;23.60;91.30;;;;;;4972143;29;20459;-87
2023/08/09 11:36:06;;;;;;;9.83;8.70;;;23.60;91.30;;;;;;4972822;28;20486;-87
2023/08/09 11:38:38;;;;;;;9.73;8.83;;;23.60;91.30;;;;;;4971028;29;20956;-87
2023/08/09 11:44:05;;;;;;;11.10;9.27;;;23.60;91.40;;;;;;4964052;28;20454;-92
2023/08/09 11:46:34;;;;;;;11.20;10.00;;;23.60;91.40;;;;;;4957928;29;20550;-92
2023/08/09 11:49:03;;;;;;;10.33;9.43;;;23.60;91.50;;;;;;4958543;29;20450;-91
2023/08/09 11:51:33;;;;;;;10.50;8.90;;;23.60;91.60;;;;;;4958103;29;21018;-92
2023/08/09 11:54:00;;;;;;;9.03;8.13;;;23.70;91.60;;;;;;4957869;29;20532;-93
2023/08/09 11:56:31;;;;;;;9.73;8.80;;;23.70;91.60;;;;;;4957974;29;20515;-95
2023/08/09 11:59:01;;;;;;;10.17;8.47;;;23.70;91.60;;;;;;4958500;28;20469;-96
2023/08/09 12:01:29;;;;;;;9.80;8.80;;;23.70;91.60;;;;;;4958768;29;20474;-96
2023/08/09 12:03:59;;;;;;;9.20;7.70;;;23.70;91.60;;;;;;4958251;29;20450;-94
2023/08/09 12:06:37;;;;;;;9.07;8.17;;;23.70;91.50;;;;;;4957976;28;20498;-96
2023/08/09 12:09:26;;;;;;;9.13;8.23;;;23.70;91.50;;;;;;4958106;29;20452;-96
2023/08/09 12:11:53;;;;;;;8.83;8.00;;;23.70;91.50;;;;;;4953112;29;20940;-95
2023/08/09 12:14:20;;;;;;;11.17;9.00;;;23.70;91.40;;;;;;4958761;29;20460;-95
2023/08/09 12:16:47;;;;;;;9.90;8.87;;;23.70;91.40;;;;;;4957984;29;20471;-96
2023/08/09 12:19:16;;;;;;;9.40;8.50;;;23.80;91.50;;;;;;4958168;29;20942;-92
2023/08/09 12:21:42;;;;;;;8.87;7.97;;;23.80;91.50;;;;;;4957784;29;20541;-94
2023/08/09 12:24:09;;;;;;;9.10;7.97;;;23.80;91.50;;;;;;4957511;29;20536;-94
2023/08/09 12:26:36;;;;;;;8.60;7.70;;;23.80;91.50;;;;;;4957629;29;20525;-94
2023/08/09 12:29:03;;;;;;;8.00;7.20;;;23.80;91.50;;;;;;4957293;29;20450;-95
2023/08/09 12:31:30;;;;;;;8.07;7.37;;;23.70;91.40;;;;;;4958509;29;20465;-94
2023/08/09 12:33:57;;;;;;;9.87;7.80;;;23.80;91.50;;;;;;4957208;29;20476;-94
2023/08/09 12:36:26;;;;;;;7.73;7.03;;;23.80;91.50;;;;;;4956994;28;20470;-93
2023/08/09 12:38:53;;;;;;;7.73;6.97;;;23.80;91.50;;;;;;4957844;29;20832;-93
2023/08/09 12:41:20;;;;;;;9.50;8.50;;;23.80;91.50;;;;;;4956882;29;20456;-93
2023/08/09 12:43:47;;;;;;;8.40;7.50;;;23.80;91.50;;;;;;4956940;29;20455;-93
2023/08/09 12:46:14;;;;;;;9.80;7.03;;;23.80;91.50;;;;;;4956888;29;20580;-93
2023/08/09 12:48:41;;;;;;;7.93;7.20;;;23.80;91.50;;;;;;4956904;29;20891;-93
2023/08/09 12:51:08;;;;;;;7.43;6.67;;;23.80;91.50;;;;;;4956699;29;20449;-93
2023/08/09 12:53:37;;;;;;;7.30;6.60;;;23.80;91.50;;;;;;4956725;29;20470;-91
2023/08/09 12:56:04;;;;;;;7.40;6.80;;;23.80;91.50;;;;;;4956657;28;20501;-91
2023/08/09 12:58:31;;;;;;;7.03;6.37;;;23.80;91.50;;;;;;4956323;28;20486;-93
2023/08/09 13:00:58;;;;;;;8.23;7.43;;;23.80;91.50;;;;;;4956939;29;20469;-93
2023/08/09 13:03:25;;;;;;;7.80;7.10;;;23.80;91.50;;;;;;4956519;29;20453;-93
2023/08/09 13:05:51;;;;;;;7.33;6.73;;;23.80;91.50;;;;;;4956441;28;20493;-93
2023/08/09 13:08:18;;;;;;;6.77;6.17;;;23.80;91.50;;;;;;4956617;29;20454;-93
2023/08/09 13:10:46;;;;;;;8.87;7.10;;;23.80;91.50;;;;;;4956620;29;20449;-93
2023/08/09 13:13:13;;;;;;;7.10;6.40;;;23.80;91.50;;;;;;4956800;29;20801;-93
2023/08/09 13:15:40;;;;;;;7.73;6.93;;;23.80;91.50;;;;;;4956095;29;20445;-93
2023/08/09 13:18:07;;;;;;;6.37;5.83;;;23.80;91.50;;;;;;4956164;29;20537;-93
2023/08/09 13:20:34;;;;;;;7.53;6.77;;;23.80;91.50;;;;;;4956297;29;20795;-93
2023/08/09 13:23:00;;;;;;;7.03;6.33;;;23.80;91.40;;;;;;4956351;29;20446;-93
2023/08/09 13:25:27;;;;;;;7.03;6.00;;;23.80;91.40;;;;;;4956570;29;20449;-93
2023/08/09 13:27:58;;;;;;;6.90;6.30;;;23.80;91.50;;;;;;4956182;29;20530;-93
2023/08/09 13:30:25;;;;;;;6.93;6.23;;;23.80;91.50;;;;;;4956199;29;20499;-93
2023/08/09 13:32:52;;;;;;;6.53;5.93;;;23.80;91.50;;;;;;4955896;29;20457;-91
2023/08/09 13:35:19;;;;;;;6.30;5.70;;;23.90;91.50;;;;;;4955846;28;20501;-92
2023/08/09 13:37:46;;;;;;;7.03;6.33;;;23.80;91.40;;;;;;4956107;29;20454;-93